x

Ilm3 - 27 Miles Se Of Wrightsville Beach, Nc (41037) Weather Station

2:08am - Sun 22nd Jan 2017 All times are EST. -5 hours from GMT.

  • Wind
    18mph, 25mph gusts
  • Sea Temp 69°f
  • Air Temp 63°f
  • Sea Pressure 1004.5mb
  • Ilm3 - 27 Miles Se Of Wrightsville Beach, Nc
  • Ilm3 - 27 Miles Se Of Wrightsville Beach, Nc

More Historic Weather Station data

Upgrade to MSW Pro to gain access to the past 30 days of data for over 8000 Wavebouys and Weather Stations around the globe.

Join Pro

Comparision Forecast

View Surf forecast
   
Sun 01/22 2:08am 18 25 mph 1004.5mb 69f 63f
1:08am 18 25 mph 1004.2mb 69f 66f
12:08am 16 20 mph 1004mb 70f 66f
Sat 01/21 11:08pm 22 29 mph 1003.6mb 71f 69f
10:08pm 13 20 mph 1005.8mb 71f 70f
9:08pm 11 22 mph 1006.3mb 71f 71f
8:08pm 13 18 mph 1006.8mb 72f 71f
7:08pm 13 20 mph 1007.3mb 72f 71f
6:08pm 16 22 mph 1007.4mb 72f 72f
5:08pm 16 22 mph 1007.6mb 72f 72f
4:08pm 16 22 mph 1008.1mb 72f 71f
3:08pm 13 20 mph 1008.3mb 72f 71f
2:08pm 13 20 mph 1009.1mb 72f 70f
1:08pm 16 22 mph 1009.4mb 72f 69f
12:08pm 13 18 mph 1011.7mb 72f 69f
11:08am 11 13 mph 1012.9mb 72f 68f
10:08am 7 11 mph 1013.3mb 72f 67f
9:08am 7 11 mph 1013.2mb 72f 67f
8:08am 2 7 mph 1013mb 72f 66f
7:08am 4 9 mph 1012.4mb 72f 66f
6:08am 7 11 mph 1012.4mb 72f 66f
5:08am 4 9 mph 1012.3mb 72f 65f
4:08am 4 9 mph 1012.6mb 72f 64f
3:08am 9 13 mph 1012.9mb 72f 65f
2:08am 9 11 mph 1012.5mb 72f 67f
1:08am 11 13 mph 1011.9mb 72f 66f
12:08am 11 16 mph 1012.4mb 71f 66f
Fri 01/20 11:08pm 11 16 mph 1012.7mb 71f 66f
10:08pm 13 20 mph 1012.1mb 71f 65f
9:08pm 13 18 mph 1011.8mb 71f 66f
8:08pm 13 20 mph 1011.3mb 71f 67f
7:08pm 16 22 mph 1011mb 71f 67f
6:08pm 13 18 mph 1010.5mb 71f 68f
5:08pm 13 18 mph 1010.3mb 71f 69f
4:08pm 11 16 mph 1010mb 71f 70f
3:08pm 11 16 mph 1010.4mb 71f 69f
2:08pm 13 18 mph 1010.3mb 71f 70f
1:08pm 13 18 mph 1010.6mb 71f 70f
12:08pm 13 18 mph 1011.5mb 71f 70f
11:08am 13 18 mph 1012.4mb 71f 70f
10:08am 11 16 mph 1012.7mb 71f 72f
9:08am 13 20 mph 1012.5mb 71f 71f
8:08am 13 18 mph 1012.9mb 71f 70f
7:08am 11 18 mph 1012.6mb 71f 69f
6:08am 13 20 mph 1012.8mb 71f 66f
5:08am 11 16 mph 1013mb 71f 65f
4:08am 11 18 mph 1013.4mb 71f 65f
3:08am 9 13 mph 1014.4mb 71f 64f
2:08am 7 11 mph 1015mb 71f 64f
1:08am 7 13 mph 1014.6mb 71f 64f
12:08am 7 16 mph 1015.3mb 71f 63f
Thu 01/19 11:08pm 9 13 mph 1015.4mb 71f 62f
10:08pm 11 16 mph 1015.5mb 71f 61f
9:08pm 7 11 mph 1016.3mb 71f 60f
8:08pm 9 13 mph 1016.2mb 70f 60f
7:08pm 9 13 mph 1016.5mb 70f 59f
6:08pm 7 11 mph 1016.6mb 70f 59f
5:08pm 7 13 mph 1016.6mb 71f 59f
4:08pm 7 11 mph 1016.3mb 71f 60f
3:08pm 7 16 mph 1016.4mb 71f 59f
2:08pm 9 13 mph 1016.8mb 71f 58f
1:08pm 11 16 mph 1017.3mb 71f 58f
12:08pm 11 18 mph 1017.8mb 71f 58f
11:08am 13 18 mph 1018.6mb 70f 58f
10:08am 13 18 mph 1019.3mb 69f 57f
9:08am 13 22 mph 1018.7mb 68f 56f
8:08am 16 22 mph 1018.4mb 68f 56f
7:08am 13 20 mph 1017.7mb 68f 57f
6:08am 11 18 mph 1017.5mb 68f 58f
5:08am 9 13 mph 1016.9mb 68f 59f
4:08am 9 16 mph 1016.5mb 68f 59f
3:08am 11 18 mph 1016.5mb 68f 60f
2:08am 13 20 mph 1016.4mb 68f 60f
1:08am 13 20 mph 1016.5mb 68f 60f
12:08am 13 22 mph 1016.7mb 68f 60f
Wed 01/18 11:08pm 16 22 mph 1016.7mb 68f 60f
10:08pm 18 27 mph 1016.5mb 68f 60f
9:08pm 18 27 mph 1016.4mb 68f 60f
8:08pm 18 27 mph 1016.1mb 68f 62f
7:08pm 16 22 mph 1015.7mb 68f 67f
6:08pm 11 20 mph 1014.6mb 68f 67f
5:08pm 7 11 mph 1013.6mb 68f 65f
4:08pm 13 18 mph 1012.9mb 68f 66f
3:08pm 18 25 mph 1012.6mb 68f 65f
2:08pm 20 27 mph 1012.5mb 68f 64f
1:08pm 22 31 mph 1012.4mb 69f 64f
12:08pm 22 31 mph 1013.8mb 68f 65f
11:08am 25 34 mph 1014.3mb 69f 66f
10:08am 27 38 mph 1014.9mb 69f 66f
9:08am 25 36 mph 1015mb 69f 67f